Time;durP1;ratioP1;P1;durP2;ratioP2;P2;SDS_P1;SDS_P2;PMS_P1;PMS_P2;Temp;Humidity;BMP_temperature;BMP_pressure;BME280_temperature;BME280_humidity;BME280_pressure;Samples;Min_cycle;Max_cycle;Signal;HPM_P1;HPM_P2
2022/11/28 01:51:03;;;;;;;24.67;9.50;;;;;;;;;;6114699;23;20217;-91
2022/11/28 01:54:08;;;;;;;31.50;8.13;;;;;;;;;;6098647;23;20158;-92
2022/11/28 01:57:16;;;;;;;26.93;8.93;;;;;;;;;;6098366;23;20508;-91
2022/11/28 02:00:22;;;;;;;32.43;8.10;;;;;;;;;;6098625;23;20187;-91
2022/11/28 02:03:32;;;;;;;33.27;8.17;;;;;;;;;;6097853;23;20625;-92
2022/11/28 02:06:39;;;;;;;33.30;8.07;;;;;;;;;;6099825;23;20187;-92
2022/11/28 02:09:44;;;;;;;22.47;8.47;;;;;;;;;;6098146;23;20190;-91
2022/11/28 02:13:00;;;;;;;68.47;9.63;;;;;;;;;;6096579;23;20173;-92
2022/11/28 02:16:23;;;;;;;33.53;8.67;;;;;;;;;;6098578;23;20191;-91
2022/11/28 02:19:47;;;;;;;31.10;8.80;;;;;;;;;;6099105;23;20170;-92
2022/11/28 02:23:04;;;;;;;31.93;8.77;;;;;;;;;;6098444;23;20158;-92
2022/11/28 02:26:18;;;;;;;55.70;9.07;;;;;;;;;;6099083;23;20182;-93
2022/11/28 02:29:43;;;;;;;42.33;7.93;;;;;;;;;;6097887;23;20154;-93
2022/11/28 02:32:56;;;;;;;36.50;8.30;;;;;;;;;;6097568;23;20165;-92
2022/11/28 02:36:12;;;;;;;42.07;8.43;;;;;;;;;;6099635;23;20194;-92
2022/11/28 02:39:30;;;;;;;31.03;8.23;;;;;;;;;;6101399;23;20217;-91
2022/11/28 02:42:49;;;;;;;43.97;7.73;;;;;;;;;;6097190;23;20154;-93
2022/11/28 02:45:56;;;;;;;38.27;7.73;;;;;;;;;;6113756;23;20641;-92
2022/11/28 03:03:53;;;;;;;33.17;9.07;;;;;;;;;;6128345;23;20241;-92
2022/11/28 03:07:02;;;;;;;37.93;7.97;;;;;;;;;;6153917;23;20177;-92
2022/11/28 03:10:15;;;;;;;36.67;8.77;;;;;;;;;;6152895;23;20173;-90
2022/11/28 03:13:23;;;;;;;49.53;8.70;;;;;;;;;;6154617;23;20189;-92
2022/11/28 03:16:32;;;;;;;17.53;7.93;;;;;;;;;;6153792;23;20168;-93
2022/11/28 03:19:41;;;;;;;36.40;7.80;;;;;;;;;;6155799;23;20628;-91
2022/11/28 03:22:53;;;;;;;26.33;7.50;;;;;;;;;;6157167;23;20554;-92
2022/11/28 03:26:00;;;;;;;37.30;7.80;;;;;;;;;;6155685;23;20208;-91
2022/11/28 03:29:09;;;;;;;17.00;7.20;;;;;;;;;;6157090;23;20217;-91
2022/11/28 03:32:17;;;;;;;30.47;8.30;;;;;;;;;;6156689;23;20163;-92
2022/11/28 03:35:25;;;;;;;20.27;7.00;;;;;;;;;;6155878;23;20176;-92
2022/11/28 03:38:35;;;;;;;32.73;7.70;;;;;;;;;;6173675;23;20173;-91
2022/11/28 03:41:43;;;;;;;19.20;7.27;;;;;;;;;;6156583;23;20160;-90
2022/11/28 03:44:52;;;;;;;30.10;7.67;;;;;;;;;;6156560;23;20195;-92
2022/11/28 03:47:59;;;;;;;18.63;7.47;;;;;;;;;;6157524;23;20165;-90
2022/11/28 03:51:10;;;;;;;18.27;7.23;;;;;;;;;;6157723;23;20172;-93
2022/11/28 03:54:18;;;;;;;12.63;6.77;;;;;;;;;;6156645;23;20181;-91
2022/11/28 03:57:27;;;;;;;19.77;7.27;;;;;;;;;;6157298;23;20152;-91
2022/11/28 04:00:34;;;;;;;12.40;6.50;;;;;;;;;;6157523;23;20153;-92
2022/11/28 04:03:44;;;;;;;14.63;7.57;;;;;;;;;;6156740;23;20192;-93
2022/11/28 04:06:56;;;;;;;15.30;7.63;;;;;;;;;;6154804;23;20168;-91
2022/11/28 04:10:04;;;;;;;16.40;7.27;;;;;;;;;;6152952;23;20184;-91
2022/11/28 04:13:16;;;;;;;15.37;6.97;;;;;;;;;;6154342;23;20148;-91
2022/11/28 04:16:22;;;;;;;20.13;8.07;;;;;;;;;;6154340;23;20236;-91
2022/11/28 04:19:30;;;;;;;24.47;7.57;;;;;;;;;;6155892;23;20169;-91
2022/11/28 04:22:39;;;;;;;24.30;6.53;;;;;;;;;;6153515;23;20156;-91
2022/11/28 04:25:47;;;;;;;15.47;7.37;;;;;;;;;;6151108;23;20213;-91
2022/11/28 04:28:54;;;;;;;13.67;6.57;;;;;;;;;;6153481;23;20156;-91
2022/11/28 04:32:01;;;;;;;28.03;7.00;;;;;;;;;;6152975;23;20176;-91
2022/11/28 04:35:10;;;;;;;17.83;6.73;;;;;;;;;;6153869;23;20244;-92
2022/11/28 04:38:17;;;;;;;21.60;6.83;;;;;;;;;;6152418;23;20189;-91
2022/11/28 04:41:23;;;;;;;12.87;6.70;;;;;;;;;;6151628;23;20208;-90
2022/11/28 04:44:30;;;;;;;13.37;6.60;;;;;;;;;;6153391;23;20173;-91
2022/11/28 04:47:36;;;;;;;13.93;6.73;;;;;;;;;;6154076;23;20258;-92
2022/11/28 04:50:44;;;;;;;13.90;6.70;;;;;;;;;;6152950;23;20165;-93
2022/11/28 04:53:57;;;;;;;14.93;7.70;;;;;;;;;;6153056;23;20169;-91
2022/11/28 04:57:04;;;;;;;17.77;7.87;;;;;;;;;;6150806;23;20178;-91
2022/11/28 05:00:11;;;;;;;18.23;8.43;;;;;;;;;;6152497;23;20144;-91
2022/11/28 05:03:16;;;;;;;18.87;8.10;;;;;;;;;;6154146;23;20193;-93
2022/11/28 05:06:28;;;;;;;27.10;10.07;;;;;;;;;;6151600;23;20195;-91
2022/11/28 05:09:35;;;;;;;23.63;9.77;;;;;;;;;;6152056;23;20268;-92
2022/11/28 05:12:41;;;;;;;27.33;10.70;;;;;;;;;;6151368;23;20189;-90
2022/11/28 05:15:46;;;;;;;29.93;11.77;;;;;;;;;;6153227;23;20160;-93
2022/11/28 05:18:52;;;;;;;23.73;10.87;;;;;;;;;;6152116;23;20561;-92
2022/11/28 05:21:57;;;;;;;35.23;13.37;;;;;;;;;;6150522;23;20169;-93
2022/11/28 05:25:04;;;;;;;28.63;12.47;;;;;;;;;;6151099;23;20191;-92
2022/11/28 05:28:09;;;;;;;31.53;12.87;;;;;;;;;;6151291;23;20424;-92
2022/11/28 05:31:15;;;;;;;32.27;11.90;;;;;;;;;;6150552;23;20157;-92
2022/11/28 05:34:20;;;;;;;26.20;12.30;;;;;;;;;;6149535;23;20169;-92
2022/11/28 05:37:26;;;;;;;30.60;13.17;;;;;;;;;;6151897;23;20169;-92
2022/11/28 05:40:33;;;;;;;34.83;13.90;;;;;;;;;;6151066;23;20165;-94
2022/11/28 05:43:38;;;;;;;35.07;13.60;;;;;;;;;;6150521;23;20188;-92
2022/11/28 05:47:14;;;;;;;33.67;14.80;;;;;;;;;;6151056;23;20220;-92
2022/11/28 05:50:19;;;;;;;33.83;15.03;;;;;;;;;;6155383;23;20212;-92
2022/11/28 05:53:24;;;;;;;36.03;15.13;;;;;;;;;;6152644;23;20164;-93
2022/11/28 05:56:31;;;;;;;37.33;14.53;;;;;;;;;;6152263;23;20245;-92
2022/11/28 05:59:37;;;;;;;38.70;14.93;;;;;;;;;;6154442;23;20363;-90
2022/11/28 06:02:42;;;;;;;42.03;16.17;;;;;;;;;;6152707;23;20164;-91
2022/11/28 06:05:48;;;;;;;41.10;16.30;;;;;;;;;;6151795;23;20236;-90
2022/11/28 06:08:58;;;;;;;41.37;16.50;;;;;;;;;;6156183;23;20226;-92
2022/11/28 06:12:05;;;;;;;40.13;15.33;;;;;;;;;;6153544;23;20693;-93
2022/11/28 06:15:11;;;;;;;32.13;13.83;;;;;;;;;;6151893;23;20213;-91
2022/11/28 06:18:17;;;;;;;34.27;13.93;;;;;;;;;;6153896;23;20152;-93
2022/11/28 06:21:23;;;;;;;37.40;14.97;;;;;;;;;;6153839;23;20164;-93
2022/11/28 06:24:28;;;;;;;33.10;13.70;;;;;;;;;;6152794;23;20176;-92
2022/11/28 06:27:36;;;;;;;37.17;15.00;;;;;;;;;;6153764;23;20187;-90
2022/11/28 06:30:43;;;;;;;36.27;14.00;;;;;;;;;;6151142;23;20183;-92
2022/11/28 06:33:49;;;;;;;39.93;14.07;;;;;;;;;;6152681;23;20157;-92
2022/11/28 06:36:54;;;;;;;29.77;13.37;;;;;;;;;;6153886;23;20172;-92
2022/11/28 06:39:59;;;;;;;31.80;13.03;;;;;;;;;;6155590;23;20169;-89
2022/11/28 06:43:06;;;;;;;36.17;13.27;;;;;;;;;;6152714;23;20212;-91
2022/11/28 06:46:12;;;;;;;37.37;14.27;;;;;;;;;;6153288;23;20691;-93
2022/11/28 06:49:17;;;;;;;41.20;14.87;;;;;;;;;;6154275;23;20225;-91
2022/11/28 06:52:23;;;;;;;27.47;11.90;;;;;;;;;;6152661;23;20165;-93
2022/11/28 06:55:30;;;;;;;31.10;12.37;;;;;;;;;;6155601;23;20691;-90
2022/11/28 06:58:37;;;;;;;28.67;11.60;;;;;;;;;;6156353;23;20176;-91
2022/11/28 07:01:45;;;;;;;27.60;11.93;;;;;;;;;;6157304;23;20209;-92
2022/11/28 07:04:51;;;;;;;34.63;12.60;;;;;;;;;;6154144;23;20216;-91
2022/11/28 07:07:57;;;;;;;29.93;12.80;;;;;;;;;;6156314;23;20239;-91
2022/11/28 07:11:08;;;;;;;32.97;13.03;;;;;;;;;;6156766;23;20173;-91
2022/11/28 07:14:19;;;;;;;33.50;13.83;;;;;;;;;;6155178;23;20169;-93
2022/11/28 07:17:24;;;;;;;22.63;8.80;;;;;;;;;;6155648;23;20316;-91
2022/11/28 07:20:29;;;;;;;19.63;8.70;;;;;;;;;;6152723;23;20239;-89
2022/11/28 07:23:35;;;;;;;21.47;9.20;;;;;;;;;;6155055;23;20189;-92
